Time;durP1;ratioP1;P1;durP2;ratioP2;P2;SDS_P1;SDS_P2;PMS_P1;PMS_P2;Temp;Humidity;BMP_temperature;BMP_pressure;BME280_temperature;BME280_humidity;BME280_pressure;Samples;Min_cycle;Max_cycle;Signal;HPM_P1;HPM_P2
2022/07/12 00:00:59;;;;;;;11.32;6.28;;;;;;;;;;5038728;28;20056;-42
2022/07/12 00:03:24;;;;;;;16.13;5.82;;;;;;;;;;5042917;28;20044;-41
2022/07/12 00:05:50;;;;;;;9.93;5.45;;;;;;;;;;5042460;28;20029;-42
2022/07/12 00:08:16;;;;;;;12.60;5.50;;;;;;;;;;5045257;28;20104;-42
2022/07/12 00:10:42;;;;;;;12.00;6.03;;;;;;;;;;5047125;28;20128;-42
2022/07/12 00:13:07;;;;;;;11.15;6.03;;;;;;;;;;5045533;28;20404;-42
2022/07/12 00:15:33;;;;;;;16.30;5.75;;;;;;;;;;5042994;28;20063;-43
2022/07/12 00:17:59;;;;;;;10.40;5.78;;;;;;;;;;5043623;28;20074;-41
2022/07/12 00:20:24;;;;;;;8.38;5.40;;;;;;;;;;5043021;28;20064;-43
2022/07/12 00:22:50;;;;;;;14.02;5.95;;;;;;;;;;5046632;28;20110;-41
2022/07/12 00:25:16;;;;;;;12.43;5.47;;;;;;;;;;5043189;28;20033;-41
2022/07/12 00:27:41;;;;;;;8.73;5.68;;;;;;;;;;5044937;28;20041;-41
2022/07/12 00:30:08;;;;;;;7.85;5.72;;;;;;;;;;5046525;28;20437;-44
2022/07/12 00:32:34;;;;;;;13.75;5.65;;;;;;;;;;5045324;28;20114;-42
2022/07/12 00:34:59;;;;;;;10.05;5.85;;;;;;;;;;5044097;28;20029;-41
2022/07/12 00:37:25;;;;;;;12.57;6.13;;;;;;;;;;5044434;28;20063;-43
2022/07/12 00:39:51;;;;;;;5.85;5.20;;;;;;;;;;5044734;28;20033;-41
2022/07/12 00:42:17;;;;;;;10.60;5.60;;;;;;;;;;5044517;28;20021;-41
2022/07/12 00:44:43;;;;;;;9.25;5.53;;;;;;;;;;5045205;28;20090;-41
2022/07/12 00:47:27;;;;;;;12.65;5.78;;;;;;;;;;5045329;28;20037;-41
2022/07/12 00:49:53;;;;;;;10.38;5.95;;;;;;;;;;5042018;28;20040;-42
2022/07/12 00:52:19;;;;;;;7.93;5.65;;;;;;;;;;5047581;28;20465;-41
2022/07/12 00:54:45;;;;;;;11.02;6.00;;;;;;;;;;5043116;28;20025;-42
2022/07/12 00:57:10;;;;;;;10.13;5.72;;;;;;;;;;5045530;28;20021;-42
2022/07/12 00:59:36;;;;;;;8.00;5.50;;;;;;;;;;5045290;28;20474;-41
2022/07/12 01:02:02;;;;;;;8.27;6.30;;;;;;;;;;5043834;28;20045;-42
2022/07/12 01:04:28;;;;;;;8.32;5.63;;;;;;;;;;5041943;28;20708;-40
2022/07/12 01:06:54;;;;;;;8.60;5.70;;;;;;;;;;5043663;28;20029;-41
2022/07/12 01:09:20;;;;;;;9.75;5.50;;;;;;;;;;5043504;28;20040;-41
2022/07/12 01:11:46;;;;;;;11.75;5.72;;;;;;;;;;5039683;28;20044;-44
2022/07/12 01:14:13;;;;;;;10.90;5.90;;;;;;;;;;5042872;28;20061;-41
2022/07/12 01:16:39;;;;;;;7.72;5.43;;;;;;;;;;5045265;28;20056;-41
2022/07/12 01:19:06;;;;;;;11.77;6.10;;;;;;;;;;5038003;28;20029;-42
2022/07/12 01:21:37;;;;;;;9.45;6.20;;;;;;;;;;5044167;28;20021;-41
2022/07/12 01:24:04;;;;;;;9.25;5.82;;;;;;;;;;5044224;28;20335;-41
2022/07/12 01:26:30;;;;;;;10.05;6.55;;;;;;;;;;5042441;28;20037;-42
2022/07/12 01:28:57;;;;;;;8.43;5.82;;;;;;;;;;5041259;28;20091;-43
2022/07/12 01:31:22;;;;;;;9.75;5.90;;;;;;;;;;5043970;28;20370;-42
2022/07/12 01:33:50;;;;;;;9.65;5.93;;;;;;;;;;5044541;28;20025;-41
2022/07/12 01:36:17;;;;;;;9.15;6.65;;;;;;;;;;5041895;28;20029;-44
2022/07/12 01:38:42;;;;;;;7.13;6.07;;;;;;;;;;5027962;28;20037;-42
2022/07/12 01:41:08;;;;;;;13.63;5.47;;;;;;;;;;5042563;28;20072;-42
2022/07/12 01:43:34;;;;;;;12.57;6.45;;;;;;;;;;5044481;28;20365;-40
2022/07/12 01:45:59;;;;;;;9.25;5.80;;;;;;;;;;5043381;28;20048;-41
2022/07/12 01:48:25;;;;;;;10.50;5.95;;;;;;;;;;5046680;28;20107;-41
2022/07/12 01:50:51;;;;;;;13.20;5.65;;;;;;;;;;5044508;28;20037;-41
2022/07/12 01:53:17;;;;;;;7.40;5.20;;;;;;;;;;5039519;28;20033;-41
2022/07/12 01:55:43;;;;;;;10.48;5.93;;;;;;;;;;5038525;28;20029;-42
2022/07/12 01:58:09;;;;;;;9.02;6.55;;;;;;;;;;5040832;28;20735;-42
2022/07/12 02:00:34;;;;;;;9.82;5.60;;;;;;;;;;5044916;28;20028;-42
2022/07/12 02:03:00;;;;;;;9.23;5.80;;;;;;;;;;5042305;28;20029;-41
2022/07/12 02:05:26;;;;;;;13.10;5.85;;;;;;;;;;5046821;28;20028;-42
2022/07/12 02:07:53;;;;;;;14.10;6.15;;;;;;;;;;5042536;28;20028;-41
2022/07/12 02:10:19;;;;;;;8.18;5.38;;;;;;;;;;5045838;28;20098;-41
2022/07/12 02:12:44;;;;;;;8.00;5.22;;;;;;;;;;5039892;28;20037;-42
2022/07/12 02:15:10;;;;;;;12.68;6.25;;;;;;;;;;5043050;28;20076;-42
2022/07/12 02:17:36;;;;;;;7.68;5.55;;;;;;;;;;5040150;28;20055;-41
2022/07/12 02:20:03;;;;;;;11.27;6.07;;;;;;;;;;5040000;28;20056;-42
2022/07/12 02:22:29;;;;;;;6.35;5.00;;;;;;;;;;5041476;28;20049;-42
2022/07/12 02:24:54;;;;;;;9.95;5.68;;;;;;;;;;5043200;28;20056;-41
2022/07/12 02:27:20;;;;;;;8.35;6.25;;;;;;;;;;5040616;28;20072;-41
2022/07/12 02:29:46;;;;;;;10.82;6.97;;;;;;;;;;5041762;28;20076;-41
2022/07/12 02:32:12;;;;;;;12.00;6.90;;;;;;;;;;5041347;28;20528;-42
2022/07/12 02:34:37;;;;;;;15.65;7.30;;;;;;;;;;5039430;28;20039;-41
2022/07/12 02:37:03;;;;;;;10.13;7.10;;;;;;;;;;5040555;28;20030;-42
2022/07/12 02:39:29;;;;;;;12.90;6.95;;;;;;;;;;5041926;28;20037;-41
2022/07/12 02:41:54;;;;;;;13.50;7.32;;;;;;;;;;5044770;28;20457;-41
2022/07/12 02:44:20;;;;;;;11.52;6.53;;;;;;;;;;5037277;28;20039;-42
2022/07/12 02:46:46;;;;;;;16.25;6.88;;;;;;;;;;5039976;28;21513;-41
2022/07/12 02:49:11;;;;;;;10.25;6.47;;;;;;;;;;5041079;28;20035;-41
2022/07/12 02:51:37;;;;;;;10.85;6.70;;;;;;;;;;5041410;28;20036;-41
2022/07/12 02:54:03;;;;;;;8.98;6.78;;;;;;;;;;5043784;28;20068;-41
2022/07/12 02:56:29;;;;;;;9.73;6.40;;;;;;;;;;5042812;28;20040;-42
2022/07/12 02:58:54;;;;;;;12.60;6.63;;;;;;;;;;5045423;28;20051;-42
2022/07/12 03:01:20;;;;;;;11.55;7.32;;;;;;;;;;5039598;28;20107;-42
2022/07/12 03:03:46;;;;;;;9.55;6.00;;;;;;;;;;5041476;28;20044;-41
2022/07/12 03:06:12;;;;;;;10.98;6.18;;;;;;;;;;5040043;28;20036;-40
2022/07/12 03:08:38;;;;;;;9.13;6.68;;;;;;;;;;5041941;28;20037;-41
2022/07/12 03:11:04;;;;;;;9.75;6.15;;;;;;;;;;5043610;28;20038;-41
2022/07/12 03:13:30;;;;;;;11.75;6.03;;;;;;;;;;5040214;28;20025;-42
2022/07/12 03:15:56;;;;;;;15.90;6.60;;;;;;;;;;5041696;28;20466;-42
2022/07/12 03:18:22;;;;;;;11.32;6.32;;;;;;;;;;5040773;28;20028;-44
2022/07/12 03:20:48;;;;;;;9.07;6.32;;;;;;;;;;5042287;28;20120;-42
2022/07/12 03:23:14;;;;;;;9.45;6.63;;;;;;;;;;5041328;28;20048;-42
2022/07/12 03:25:39;;;;;;;14.45;7.55;;;;;;;;;;5042087;28;20579;-41
2022/07/12 03:28:05;;;;;;;10.95;6.68;;;;;;;;;;5042903;28;20045;-42
2022/07/12 03:30:31;;;;;;;7.88;6.50;;;;;;;;;;5042722;28;20489;-41
2022/07/12 03:32:57;;;;;;;12.25;6.80;;;;;;;;;;5041280;28;20036;-42
2022/07/12 03:35:23;;;;;;;9.02;6.07;;;;;;;;;;5041678;28;20033;-41
2022/07/12 03:37:50;;;;;;;9.00;6.20;;;;;;;;;;5039750;28;22633;-41
2022/07/12 03:40:18;;;;;;;8.40;6.43;;;;;;;;;;5039578;28;20036;-41
2022/07/12 03:42:45;;;;;;;15.77;7.72;;;;;;;;;;5042535;28;20036;-41
2022/07/12 03:45:12;;;;;;;10.18;7.45;;;;;;;;;;5046704;28;20064;-42
2022/07/12 03:47:38;;;;;;;13.48;7.50;;;;;;;;;;5047232;28;20311;-42
2022/07/12 03:50:06;;;;;;;12.38;6.53;;;;;;;;;;5043462;28;20622;-42
2022/07/12 03:52:32;;;;;;;10.82;6.68;;;;;;;;;;5047767;28;20033;-41
2022/07/12 03:54:59;;;;;;;8.90;7.00;;;;;;;;;;5044103;28;20033;-43
2022/07/12 03:57:26;;;;;;;9.40;6.10;;;;;;;;;;5044556;28;20129;-41
2022/07/12 03:59:52;;;;;;;11.82;6.25;;;;;;;;;;5043848;28;20052;-41
2022/07/12 04:02:18;;;;;;;11.98;6.13;;;;;;;;;;5049986;28;20025;-41
2022/07/12 04:04:44;;;;;;;8.73;6.55;;;;;;;;;;5041174;28;20044;-42
2022/07/12 04:07:10;;;;;;;7.25;6.15;;;;;;;;;;5043793;28;20389;-41
2022/07/12 04:09:36;;;;;;;10.70;6.13;;;;;;;;;;5046963;28;20033;-40
2022/07/12 04:12:01;;;;;;;7.63;6.50;;;;;;;;;;5044488;28;20036;-42
2022/07/12 04:14:30;;;;;;;13.57;6.43;;;;;;;;;;5044785;28;20445;-41
2022/07/12 04:16:57;;;;;;;13.63;7.15;;;;;;;;;;5041956;28;20037;-41
2022/07/12 04:19:27;;;;;;;11.43;6.30;;;;;;;;;;5040521;28;20029;-42
2022/07/12 04:21:56;;;;;;;8.90;6.13;;;;;;;;;;5044438;28;20430;-42
2022/07/12 04:24:22;;;;;;;9.35;6.68;;;;;;;;;;5042871;28;20112;-41
2022/07/12 04:26:48;;;;;;;8.50;6.25;;;;;;;;;;5041138;28;20143;-41
2022/07/12 04:29:21;;;;;;;11.00;6.05;;;;;;;;;;5047062;28;20037;-42
2022/07/12 04:31:47;;;;;;;11.00;6.25;;;;;;;;;;5043607;28;20064;-41
2022/07/12 04:34:16;;;;;;;12.63;6.22;;;;;;;;;;5042379;28;20104;-42
2022/07/12 04:36:47;;;;;;;9.45;6.53;;;;;;;;;;5044582;28;20033;-41
2022/07/12 04:39:13;;;;;;;9.70;6.10;;;;;;;;;;5043822;28;20037;-44
2022/07/12 04:41:39;;;;;;;11.23;5.32;;;;;;;;;;5044915;28;20037;-41
2022/07/12 04:44:08;;;;;;;10.80;5.93;;;;;;;;;;5041522;28;20063;-42
2022/07/12 04:46:34;;;;;;;15.07;7.40;;;;;;;;;;5043594;28;20118;-41
2022/07/12 04:49:00;;;;;;;11.65;6.72;;;;;;;;;;5044713;28;20082;-42
2022/07/12 04:51:26;;;;;;;14.50;6.70;;;;;;;;;;5044189;28;20037;-41
2022/07/12 04:53:52;;;;;;;12.82;6.85;;;;;;;;;;5046529;28;20104;-41
2022/07/12 04:56:18;;;;;;;9.27;6.30;;;;;;;;;;5043661;28;20207;-42
2022/07/12 04:58:43;;;;;;;12.75;6.72;;;;;;;;;;5027992;28;20726;-42
2022/07/12 05:01:09;;;;;;;12.15;7.18;;;;;;;;;;5044632;28;20479;-42
2022/07/12 05:03:35;;;;;;;12.13;6.88;;;;;;;;;;5041114;28;20032;-41
2022/07/12 05:06:00;;;;;;;12.05;7.15;;;;;;;;;;5044318;28;20377;-42
2022/07/12 05:08:26;;;;;;;13.85;7.35;;;;;;;;;;5047667;28;20025;-41
2022/07/12 05:10:52;;;;;;;10.38;6.80;;;;;;;;;;5044150;28;20526;-41
2022/07/12 05:13:17;;;;;;;9.93;7.00;;;;;;;;;;5041164;28;20033;-42
2022/07/12 05:15:43;;;;;;;11.40;6.53;;;;;;;;;;5040392;28;20103;-42
2022/07/12 05:18:09;;;;;;;13.20;7.00;;;;;;;;;;5040111;28;20029;-41
2022/07/12 05:20:34;;;;;;;8.45;6.57;;;;;;;;;;5041334;28;20495;-42
2022/07/12 05:23:00;;;;;;;12.70;7.35;;;;;;;;;;5043303;28;20033;-41
2022/07/12 05:25:26;;;;;;;10.07;6.78;;;;;;;;;;5042333;28;20033;-41
2022/07/12 05:27:51;;;;;;;13.43;6.72;;;;;;;;;;5043636;28;20460;-41
2022/07/12 05:30:17;;;;;;;12.77;7.65;;;;;;;;;;5043188;28;20567;-41
2022/07/12 05:32:43;;;;;;;16.38;7.57;;;;;;;;;;5036708;28;20160;-41
2022/07/12 05:35:09;;;;;;;8.68;6.35;;;;;;;;;;5039913;28;20103;-41
2022/07/12 05:37:34;;;;;;;10.48;6.88;;;;;;;;;;5037369;28;20112;-40
2022/07/12 05:40:00;;;;;;;14.80;7.03;;;;;;;;;;5044738;28;20102;-43
2022/07/12 05:42:28;;;;;;;12.20;6.05;;;;;;;;;;5035762;28;20021;-41
2022/07/12 05:44:53;;;;;;;11.73;6.55;;;;;;;;;;5038732;28;20740;-42
2022/07/12 05:47:19;;;;;;;13.10;6.57;;;;;;;;;;5038929;28;20033;-41
2022/07/12 05:49:45;;;;;;;9.60;5.85;;;;;;;;;;5039086;28;20033;-42
2022/07/12 05:54:55;;;;;;;10.13;7.03;;;;;;;;;;5046838;28;20056;-42
2022/07/12 05:57:21;;;;;;;16.83;7.00;;;;;;;;;;5039075;28;20021;-43
2022/07/12 05:59:47;;;;;;;12.50;7.22;;;;;;;;;;5039767;28;20480;-42
2022/07/12 06:02:12;;;;;;;12.48;7.07;;;;;;;;;;5040230;28;20036;-42
2022/07/12 06:04:38;;;;;;;10.10;6.22;;;;;;;;;;5039321;28;20048;-43
2022/07/12 06:07:04;;;;;;;12.40;6.43;;;;;;;;;;5038276;28;20033;-42
2022/07/12 06:09:30;;;;;;;9.77;7.00;;;;;;;;;;5040400;28;20033;-42
2022/07/12 06:11:55;;;;;;;14.25;6.38;;;;;;;;;;5041049;28;20021;-42
2022/07/12 06:14:21;;;;;;;8.93;6.78;;;;;;;;;;5043205;28;20033;-42
2022/07/12 06:16:47;;;;;;;10.77;6.85;;;;;;;;;;5037344;28;20034;-43
2022/07/12 06:19:13;;;;;;;10.30;6.55;;;;;;;;;;5038258;28;20029;-42
2022/07/12 06:21:38;;;;;;;13.40;6.57;;;;;;;;;;5041677;28;20036;-42
2022/07/12 06:24:04;;;;;;;21.67;6.85;;;;;;;;;;5039420;28;20499;-42
2022/07/12 06:26:30;;;;;;;15.57;6.68;;;;;;;;;;5044296;28;20041;-43
2022/07/12 06:28:56;;;;;;;10.25;6.22;;;;;;;;;;5039071;28;20037;-41
2022/07/12 06:31:23;;;;;;;18.92;6.78;;;;;;;;;;5046036;28;20037;-42
2022/07/12 06:33:49;;;;;;;16.50;6.82;;;;;;;;;;5040838;28;20033;-42
2022/07/12 06:36:15;;;;;;;13.60;7.10;;;;;;;;;;5039039;28;20029;-40
2022/07/12 06:38:41;;;;;;;15.93;5.88;;;;;;;;;;5045101;28;20037;-42
2022/07/12 06:41:06;;;;;;;12.20;6.20;;;;;;;;;;5039232;28;20034;-42
2022/07/12 06:43:32;;;;;;;12.55;6.55;;;;;;;;;;5043713;28;20055;-43
2022/07/12 06:45:58;;;;;;;16.15;7.07;;;;;;;;;;5038914;28;20120;-42
2022/07/12 06:48:23;;;;;;;14.35;6.90;;;;;;;;;;5044387;28;20502;-42
2022/07/12 06:50:49;;;;;;;16.88;8.38;;;;;;;;;;5043836;28;20044;-41
2022/07/12 06:53:15;;;;;;;14.15;8.43;;;;;;;;;;5037378;28;20078;-41
2022/07/12 06:55:43;;;;;;;15.10;9.18;;;;;;;;;;5043531;28;20032;-42
2022/07/12 06:58:08;;;;;;;19.05;11.30;;;;;;;;;;5036450;28;20645;-43
2022/07/12 07:00:34;;;;;;;21.75;10.63;;;;;;;;;;5041817;28;20057;-42
2022/07/12 07:03:00;;;;;;;17.35;11.35;;;;;;;;;;5035465;28;20440;-41
2022/07/12 07:05:26;;;;;;;23.50;12.68;;;;;;;;;;5037326;28;20028;-42
2022/07/12 07:07:51;;;;;;;18.15;9.70;;;;;;;;;;5039781;28;20386;-43
2022/07/12 07:10:17;;;;;;;22.13;10.85;;;;;;;;;;5041256;28;20147;-42
2022/07/12 07:12:43;;;;;;;18.27;12.25;;;;;;;;;;5043171;28;20116;-43
2022/07/12 07:15:09;;;;;;;14.85;10.95;;;;;;;;;;5041023;28;20447;-42
2022/07/12 07:17:34;;;;;;;18.35;12.15;;;;;;;;;;5042370;28;20029;-43
2022/07/12 07:20:00;;;;;;;18.35;12.23;;;;;;;;;;5043454;28;20037;-41
2022/07/12 07:22:27;;;;;;;17.33;12.18;;;;;;;;;;5040128;28;20044;-42
2022/07/12 07:24:53;;;;;;;19.55;12.82;;;;;;;;;;5038974;28;20036;-42
2022/07/12 07:27:18;;;;;;;19.83;11.93;;;;;;;;;;5022716;28;20053;-42
2022/07/12 07:32:29;;;;;;;24.15;14.38;;;;;;;;;;5038391;28;20091;-42
2022/07/12 07:34:55;;;;;;;20.42;13.13;;;;;;;;;;5035302;28;20440;-44
2022/07/12 07:37:21;;;;;;;20.52;15.38;;;;;;;;;;5036704;28;20029;-44
2022/07/12 07:39:46;;;;;;;18.52;13.20;;;;;;;;;;5038639;28;20068;-42
2022/07/12 07:42:12;;;;;;;25.45;13.50;;;;;;;;;;5040072;28;20090;-42
2022/07/12 07:44:38;;;;;;;24.23;13.27;;;;;;;;;;5044505;28;20102;-42
2022/07/12 07:47:04;;;;;;;20.20;13.27;;;;;;;;;;5041149;28;20036;-42
2022/07/12 07:49:29;;;;;;;19.17;11.70;;;;;;;;;;5034891;28;20060;-42
2022/07/12 07:51:55;;;;;;;19.15;13.70;;;;;;;;;;5037657;28;20033;-42
2022/07/12 07:54:21;;;;;;;22.50;12.43;;;;;;;;;;5040649;28;20055;-42
2022/07/12 07:56:47;;;;;;;17.90;11.55;;;;;;;;;;5037648;28;20028;-42
2022/07/12 07:59:13;;;;;;;46.50;12.65;;;;;;;;;;5042170;28;20029;-43
2022/07/12 08:01:53;;;;;;;14.50;11.45;;;;;;;;;;5040904;28;20031;-42
2022/07/12 08:04:21;;;;;;;15.82;12.02;;;;;;;;;;5042296;28;20041;-42
2022/07/12 08:06:47;;;;;;;18.83;11.90;;;;;;;;;;5039326;28;20029;-42
2022/07/12 08:09:14;;;;;;;16.40;10.50;;;;;;;;;;5039751;28;20156;-42
2022/07/12 08:11:40;;;;;;;16.55;10.55;;;;;;;;;;5042707;28;20021;-43
2022/07/12 08:14:07;;;;;;;16.60;10.43;;;;;;;;;;5037763;28;20096;-42
2022/07/12 08:16:34;;;;;;;18.00;10.93;;;;;;;;;;5041750;28;20021;-42
2022/07/12 08:18:59;;;;;;;17.35;11.18;;;;;;;;;;5042635;28;20024;-44
2022/07/12 08:21:26;;;;;;;16.02;10.73;;;;;;;;;;5040940;28;20573;-45
2022/07/12 08:23:51;;;;;;;20.80;10.18;;;;;;;;;;5040270;28;20377;-42
2022/07/12 08:26:17;;;;;;;15.38;9.82;;;;;;;;;;5041168;28;20043;-42
2022/07/12 08:28:43;;;;;;;14.23;10.18;;;;;;;;;;5040128;28;20040;-42
2022/07/12 08:31:09;;;;;;;15.13;10.38;;;;;;;;;;5045785;28;20440;-47
2022/07/12 08:33:35;;;;;;;19.20;11.07;;;;;;;;;;5047143;28;20031;-41
2022/07/12 08:36:00;;;;;;;16.02;10.77;;;;;;;;;;5043935;28;20408;-43
2022/07/12 08:38:27;;;;;;;21.92;10.38;;;;;;;;;;5044556;28;20048;-42
2022/07/12 08:40:53;;;;;;;21.65;10.95;;;;;;;;;;5047720;28;20025;-42
2022/07/12 08:43:18;;;;;;;14.85;10.95;;;;;;;;;;5043626;28;20035;-42
2022/07/12 08:45:44;;;;;;;13.38;11.13;;;;;;;;;;5043072;28;20029;-42
2022/07/12 08:48:09;;;;;;;16.27;10.80;;;;;;;;;;5044321;28;20097;-43
2022/07/12 08:50:35;;;;;;;20.52;11.73;;;;;;;;;;5042383;28;20082;-45
2022/07/12 08:53:01;;;;;;;17.48;11.80;;;;;;;;;;5045671;28;20039;-45
2022/07/12 08:55:29;;;;;;;17.90;11.93;;;;;;;;;;5044084;28;20037;-45
2022/07/12 08:57:59;;;;;;;16.55;11.65;;;;;;;;;;5041888;28;20080;-42
2022/07/12 09:00:26;;;;;;;18.40;12.60;;;;;;;;;;5040833;28;20034;-43
2022/07/12 09:02:55;;;;;;;13.55;11.35;;;;;;;;;;5044111;28;20104;-49
2022/07/12 09:05:24;;;;;;;16.70;10.70;;;;;;;;;;5043658;28;20060;-42
2022/07/12 09:07:51;;;;;;;13.68;9.50;;;;;;;;;;5045934;28;20069;-47
2022/07/12 09:10:17;;;;;;;18.30;9.05;;;;;;;;;;5042843;28;20021;-42
2022/07/12 09:12:44;;;;;;;10.48;7.85;;;;;;;;;;5042444;28;20079;-43
2022/07/12 09:15:30;;;;;;;14.75;9.45;;;;;;;;;;5044167;28;20029;-46
2022/07/12 09:18:17;;;;;;;12.15;8.68;;;;;;;;;;5042325;28;20837;-44
2022/07/12 09:20:51;;;;;;;12.02;8.85;;;;;;;;;;5040821;28;20139;-43
2022/07/12 09:23:17;;;;;;;10.82;9.20;;;;;;;;;;5041527;28;20052;-43
2022/07/12 09:25:45;;;;;;;18.35;7.68;;;;;;;;;;5045265;28;20078;-43
2022/07/12 09:28:10;;;;;;;14.13;7.20;;;;;;;;;;5044060;28;20046;-46
2022/07/12 09:30:46;;;;;;;11.85;7.13;;;;;;;;;;5042197;28;20059;-45
2022/07/12 09:36:10;;;;;;;8.40;5.15;;;;;;;;;;5042461;28;20051;-45
2022/07/12 09:38:39;;;;;;;15.95;7.00;;;;;;;;;;5041820;28;20033;-43
2022/07/12 09:41:05;;;;;;;15.40;6.90;;;;;;;;;;5039559;28;20021;-43
2022/07/12 09:43:32;;;;;;;9.18;5.60;;;;;;;;;;5041399;28;20421;-45
2022/07/12 09:45:59;;;;;;;13.98;6.38;;;;;;;;;;5042791;28;20094;-44
2022/07/12 09:48:29;;;;;;;15.00;6.20;;;;;;;;;;5044386;28;20029;-46
2022/07/12 09:50:57;;;;;;;10.93;5.32;;;;;;;;;;5042806;28;20108;-43
2022/07/12 09:53:37;;;;;;;11.55;5.20;;;;;;;;;;5043305;28;20029;-42
2022/07/12 09:56:09;;;;;;;8.98;6.97;;;;;;;;;;5041812;28;20029;-44
2022/07/12 09:58:57;;;;;;;11.40;6.57;;;;;;;;;;5043407;28;20481;-43
2022/07/12 10:01:24;;;;;;;11.20;7.30;;;;;;;;;;5042216;28;20037;-43
2022/07/12 10:03:55;;;;;;;17.33;9.75;;;;;;;;;;5044687;28;20100;-42
2022/07/12 10:06:29;;;;;;;;;;;;;;;;;;5043841;28;20033;-46
2022/07/12 10:08:56;;;;;;;17.25;12.57;;;;;;;;;;5041184;28;20054;-46
2022/07/12 10:11:25;;;;;;;27.13;13.40;;;;;;;;;;5046305;28;20135;-45
2022/07/12 10:13:52;;;;;;;32.45;13.93;;;;;;;;;;5039821;28;20120;-46
2022/07/12 10:16:27;;;;;;;22.92;13.88;;;;;;;;;;5041313;28;20025;-47
2022/07/12 10:19:22;;;;;;;25.70;15.23;;;;;;;;;;5040910;28;20129;-42
2022/07/12 10:21:50;;;;;;;18.98;14.30;;;;;;;;;;5034238;28;20045;-42
2022/07/12 10:24:31;;;;;;;21.80;14.35;;;;;;;;;;5041065;28;20104;-43
2022/07/12 10:27:20;;;;;;;20.55;13.80;;;;;;;;;;5039003;28;20143;-43
2022/07/12 10:29:48;;;;;;;27.55;14.73;;;;;;;;;;5043224;28;20033;-44
2022/07/12 10:32:25;;;;;;;20.33;14.10;;;;;;;;;;5042092;28;20037;-45
2022/07/12 10:35:05;;;;;;;21.73;14.95;;;;;;;;;;5042309;28;20064;-43
2022/07/12 10:37:32;;;;;;;21.83;13.68;;;;;;;;;;5042057;28;20029;-47
2022/07/12 10:40:18;;;;;;;19.10;14.27;;;;;;;;;;5037741;28;20120;-45
2022/07/12 10:43:04;;;;;;;22.65;13.10;;;;;;;;;;5044488;28;20104;-47
2022/07/12 10:45:33;;;;;;;18.08;13.93;;;;;;;;;;5030535;28;20041;-45
2022/07/12 10:48:04;;;;;;;17.38;13.60;;;;;;;;;;5037175;28;20557;-45
2022/07/12 10:50:45;;;;;;;20.05;13.80;;;;;;;;;;5043817;28;20041;-45
2022/07/12 10:53:34;;;;;;;22.23;15.67;;;;;;;;;;5042242;28;20388;-43
2022/07/12 10:56:22;;;;;;;27.65;14.80;;;;;;;;;;5040482;28;20285;-42
2022/07/12 10:58:51;;;;;;;17.25;12.55;;;;;;;;;;5042567;28;20505;-44
2022/07/12 11:01:21;;;;;;;19.05;12.38;;;;;;;;;;5035918;28;20041;-43
2022/07/12 11:03:49;;;;;;;15.02;11.30;;;;;;;;;;5043558;28;20102;-43
2022/07/12 11:06:20;;;;;;;13.18;8.85;;;;;;;;;;5041419;28;20025;-41
2022/07/12 11:08:59;;;;;;;16.08;9.02;;;;;;;;;;5040514;28;20041;-43
2022/07/12 11:11:41;;;;;;;13.68;8.43;;;;;;;;;;5036953;28;20022;-42
2022/07/12 11:14:06;;;;;;;13.68;8.25;;;;;;;;;;5037506;28;20143;-43
2022/07/12 11:16:32;;;;;;;12.00;7.15;;;;;;;;;;5041068;28;20505;-45
2022/07/12 11:18:58;;;;;;;8.30;7.35;;;;;;;;;;5040585;28;20482;-44
2022/07/12 11:21:24;;;;;;;14.27;7.60;;;;;;;;;;5040392;28;20029;-43
2022/07/12 11:23:50;;;;;;;8.02;6.57;;;;;;;;;;5041722;28;20148;-42
2022/07/12 11:26:17;;;;;;;9.23;6.68;;;;;;;;;;5041502;28;20030;-43
2022/07/12 11:28:44;;;;;;;9.55;6.38;;;;;;;;;;5038493;28;20028;-43
2022/07/12 11:31:12;;;;;;;11.68;6.60;;;;;;;;;;5042235;28;20044;-46
2022/07/12 11:33:44;;;;;;;9.05;6.00;;;;;;;;;;5038671;28;20029;-43
2022/07/12 11:36:12;;;;;;;9.98;5.93;;;;;;;;;;5041581;28;20104;-42
2022/07/12 11:38:40;;;;;;;7.22;4.80;;;;;;;;;;5037790;28;20158;-44
2022/07/12 11:41:08;;;;;;;8.50;5.30;;;;;;;;;;5040354;28;20043;-43
2022/07/12 11:43:35;;;;;;;11.48;5.10;;;;;;;;;;5040060;28;20104;-43
2022/07/12 11:46:03;;;;;;;8.13;4.40;;;;;;;;;;5040078;28;20150;-43
2022/07/12 11:48:32;;;;;;;8.63;5.00;;;;;;;;;;5039515;28;20032;-43
2022/07/12 11:51:03;;;;;;;10.95;4.47;;;;;;;;;;5037277;28;20037;-43
2022/07/12 11:53:31;;;;;;;7.18;4.47;;;;;;;;;;5037532;28;20091;-45
2022/07/12 11:55:58;;;;;;;5.20;4.00;;;;;;;;;;5038888;28;20056;-42
2022/07/12 11:58:25;;;;;;;15.05;4.47;;;;;;;;;;5041038;28;20082;-43
2022/07/12 12:00:52;;;;;;;9.27;4.43;;;;;;;;;;5037661;28;20029;-44
2022/07/12 12:03:21;;;;;;;7.40;3.78;;;;;;;;;;5045996;28;20032;-46
2022/07/12 12:05:49;;;;;;;7.75;3.50;;;;;;;;;;5043304;28;20362;-46
2022/07/12 12:08:16;;;;;;;6.53;3.80;;;;;;;;;;5047746;28;20037;-42
2022/07/12 12:10:51;;;;;;;5.40;3.38;;;;;;;;;;5042289;28;20068;-47
2022/07/12 12:13:18;;;;;;;6.20;3.20;;;;;;;;;;5044119;28;20029;-43
2022/07/12 12:15:55;;;;;;;6.93;3.22;;;;;;;;;;5046984;28;20473;-46
2022/07/12 12:18:41;;;;;;;10.80;3.67;;;;;;;;;;5043690;28;20036;-43
2022/07/12 12:21:10;;;;;;;6.20;3.33;;;;;;;;;;5043447;28;20039;-44
2022/07/12 12:23:38;;;;;;;4.85;3.47;;;;;;;;;;5046171;28;20040;-43
2022/07/12 12:26:20;;;;;;;5.68;3.28;;;;;;;;;;5044340;28;20071;-43
2022/07/12 12:28:50;;;;;;;5.70;3.35;;;;;;;;;;5042257;28;20044;-44
2022/07/12 12:31:20;;;;;;;4.45;3.10;;;;;;;;;;5044203;28;20097;-45
2022/07/12 12:33:56;;;;;;;7.32;3.40;;;;;;;;;;5040604;28;21376;-43
2022/07/12 12:36:24;;;;;;;5.25;3.05;;;;;;;;;;5045866;28;20033;-49
2022/07/12 12:39:03;;;;;;;10.05;3.67;;;;;;;;;;5043722;28;20028;-43
2022/07/12 12:41:37;;;;;;;8.35;3.40;;;;;;;;;;5039902;28;20055;-42
2022/07/12 12:44:04;;;;;;;14.68;3.22;;;;;;;;;;5041613;28;20033;-43
2022/07/12 12:47:30;;;;;;;7.22;3.53;;;;;;;;;;5040535;28;20024;-43
2022/07/12 12:49:45;;;;;;;13.90;3.03;;;;;;;;;;5040645;28;20083;-48
2022/07/12 12:52:11;;;;;;;4.78;3.25;;;;;;;;;;5044536;28;20133;-42
2022/07/12 12:54:38;;;;;;;6.00;2.80;;;;;;;;;;5045374;28;20116;-46
2022/07/12 12:57:05;;;;;;;4.75;2.83;;;;;;;;;;5043851;28;20067;-43
2022/07/12 12:59:31;;;;;;;4.63;3.00;;;;;;;;;;5043795;28;20061;-45
2022/07/12 13:01:57;;;;;;;6.95;3.58;;;;;;;;;;5043333;28;20032;-43
2022/07/12 13:04:26;;;;;;;6.10;3.20;;;;;;;;;;5045740;28;20032;-42
2022/07/12 13:06:52;;;;;;;4.78;2.97;;;;;;;;;;5040157;28;20052;-43
2022/07/12 13:09:22;;;;;;;8.02;3.17;;;;;;;;;;5045188;28;20482;-45
2022/07/12 13:11:48;;;;;;;5.45;2.85;;;;;;;;;;5042772;28;20028;-45
2022/07/12 13:14:14;;;;;;;6.32;2.72;;;;;;;;;;5043188;28;20395;-44
2022/07/12 13:16:39;;;;;;;4.70;2.70;;;;;;;;;;5045166;28;20032;-45
2022/07/12 13:19:07;;;;;;;7.05;2.78;;;;;;;;;;5043275;28;20021;-43
2022/07/12 13:21:33;;;;;;;5.00;2.70;;;;;;;;;;5043585;28;20355;-43
2022/07/12 13:23:59;;;;;;;3.45;2.53;;;;;;;;;;5046253;28;20033;-43
2022/07/12 13:26:26;;;;;;;5.22;2.92;;;;;;;;;;5041134;28;20083;-44
2022/07/12 13:28:54;;;;;;;5.97;2.53;;;;;;;;;;5044242;28;20037;-43
2022/07/12 13:31:20;;;;;;;7.20;2.75;;;;;;;;;;5038726;28;20028;-43
2022/07/12 13:33:46;;;;;;;5.88;2.70;;;;;;;;;;5039863;28;20044;-42
2022/07/12 13:36:12;;;;;;;4.10;2.20;;;;;;;;;;5045677;28;20029;-43
2022/07/12 13:38:38;;;;;;;4.95;2.50;;;;;;;;;;5040978;28;20104;-48
2022/07/12 13:41:05;;;;;;;5.45;2.55;;;;;;;;;;5042540;28;20037;-42
2022/07/12 13:43:31;;;;;;;4.10;2.67;;;;;;;;;;5041159;28;20477;-46
2022/07/12 13:45:57;;;;;;;6.25;2.33;;;;;;;;;;5043215;28;20056;-43
2022/07/12 13:48:23;;;;;;;2.53;2.22;;;;;;;;;;5041146;28;20377;-43
2022/07/12 13:50:49;;;;;;;4.63;2.50;;;;;;;;;;5041805;28;20029;-42
2022/07/12 13:53:15;;;;;;;4.15;2.25;;;;;;;;;;5039948;28;20037;-47
2022/07/12 13:55:45;;;;;;;10.30;2.70;;;;;;;;;;5042198;28;20091;-44
2022/07/12 13:58:12;;;;;;;4.97;2.38;;;;;;;;;;5041241;28;20095;-43
2022/07/12 14:00:37;;;;;;;12.50;2.70;;;;;;;;;;5041649;28;20029;-42
2022/07/12 14:03:03;;;;;;;11.25;2.58;;;;;;;;;;5043339;28;20029;-43
2022/07/12 14:05:29;;;;;;;5.72;2.53;;;;;;;;;;5038416;28;20508;-43
2022/07/12 14:07:56;;;;;;;8.55;2.90;;;;;;;;;;5042409;28;20059;-42
2022/07/12 14:10:22;;;;;;;10.70;2.80;;;;;;;;;;5042386;28;20036;-45
2022/07/12 14:12:48;;;;;;;7.60;2.40;;;;;;;;;;5040316;28;20035;-42
2022/07/12 14:15:14;;;;;;;13.13;2.47;;;;;;;;;;5042095;28;20033;-46
2022/07/12 14:17:39;;;;;;;4.65;2.05;;;;;;;;;;5038058;28;20041;-41
2022/07/12 14:20:07;;;;;;;7.03;2.50;;;;;;;;;;5044434;28;20032;-43
2022/07/12 14:22:33;;;;;;;4.22;2.30;;;;;;;;;;5043807;28;20028;-46
2022/07/12 14:24:59;;;;;;;7.40;2.65;;;;;;;;;;5026585;28;20036;-42
2022/07/12 14:27:25;;;;;;;6.15;2.13;;;;;;;;;;5041931;28;20040;-43
2022/07/12 14:29:51;;;;;;;3.90;2.28;;;;;;;;;;5041190;28;20123;-45
2022/07/12 14:32:17;;;;;;;9.20;2.72;;;;;;;;;;5044187;28;20031;-44
2022/07/12 14:34:42;;;;;;;5.68;2.42;;;;;;;;;;5039909;28;20029;-43
2022/07/12 14:37:08;;;;;;;7.28;2.60;;;;;;;;;;5039939;28;20036;-43
2022/07/12 14:39:34;;;;;;;5.13;2.10;;;;;;;;;;5041360;28;20639;-43
2022/07/12 14:42:00;;;;;;;4.85;2.25;;;;;;;;;;5042687;28;20044;-43
2022/07/12 14:44:26;;;;;;;2.60;2.25;;;;;;;;;;5039012;28;20025;-43